createdAt,value
2023-02-12T00:00:04.525Z,24.50
2023-02-12T00:02:41.976Z,23.40
2023-02-12T00:05:08.947Z,25.40
2023-02-12T00:07:35.734Z,27.30
2023-02-12T00:10:02.572Z,29.37
2023-02-12T00:12:29.461Z,24.17
2023-02-12T00:14:56.310Z,27.13
2023-02-12T00:17:23.133Z,27.37
2023-02-12T00:19:49.895Z,28.80
2023-02-12T00:22:16.864Z,26.90
2023-02-12T00:24:43.766Z,24.50
2023-02-12T00:27:10.592Z,23.10
2023-02-12T00:29:37.867Z,30.03
2023-02-12T00:32:05.725Z,24.63
2023-02-12T00:34:32.640Z,22.33
2023-02-12T00:36:59.778Z,26.73
2023-02-12T00:39:26.872Z,27.20
2023-02-12T00:41:53.759Z,24.57
2023-02-12T00:44:21.164Z,27.80
2023-02-12T00:46:47.993Z,25.90
2023-02-12T00:49:16.730Z,31.87
2023-02-12T00:51:43.564Z,31.43
2023-02-12T00:54:10.640Z,29.00
2023-02-12T00:56:37.617Z,32.43
2023-02-12T00:59:04.415Z,30.10
2023-02-12T01:01:31.406Z,29.53
2023-02-12T01:03:58.272Z,29.10
2023-02-12T01:06:26.666Z,27.50
2023-02-12T01:08:53.666Z,29.87
2023-02-12T01:11:20.691Z,28.57
2023-02-12T01:13:48.621Z,31.50
2023-02-12T01:16:17.985Z,27.07
2023-02-12T01:18:45.134Z,30.90
2023-02-12T01:21:16.111Z,30.83
2023-02-12T01:23:44.409Z,25.50
2023-02-12T01:26:12.332Z,28.40
2023-02-12T01:28:40.962Z,27.67
2023-02-12T01:31:16.822Z,29.53
2023-02-12T01:33:44.019Z,39.67
2023-02-12T01:36:11.314Z,32.67
2023-02-12T01:38:38.097Z,29.50
2023-02-12T01:41:06.526Z,34.23
2023-02-12T01:43:34.168Z,34.23
2023-02-12T01:46:01.192Z,31.83
2023-02-12T01:48:29.833Z,33.13
2023-02-12T01:50:57.787Z,28.37
2023-02-12T01:53:25.811Z,30.03
2023-02-12T01:55:57.380Z,27.00
2023-02-12T01:58:25.614Z,31.67
2023-02-12T02:00:52.731Z,29.13
2023-02-12T02:03:19.637Z,33.87
2023-02-12T02:05:58.701Z,30.87
2023-02-12T02:08:26.426Z,32.90
2023-02-12T02:10:53.214Z,32.80
2023-02-12T02:13:39.338Z,34.03
2023-02-12T02:16:15.330Z,31.00
2023-02-12T02:18:56.097Z,33.13
2023-02-12T02:21:41.398Z,32.97
2023-02-12T02:24:28.531Z,33.37
2023-02-12T02:27:05.876Z,32.80
2023-02-12T02:29:38.787Z,35.30
2023-02-12T02:32:11.744Z,38.17
2023-02-12T02:34:47.919Z,34.80
2023-02-12T02:37:17.958Z,36.90
2023-02-12T02:40:03.309Z,40.53
2023-02-12T02:42:30.198Z,42.07
2023-02-12T02:45:00.694Z,40.80
2023-02-12T02:47:54.120Z,33.70
2023-02-12T02:50:23.188Z,39.07
2023-02-12T02:52:52.774Z,39.67
2023-02-12T02:55:20.579Z,44.80
2023-02-12T02:57:47.317Z,42.53
2023-02-12T03:00:14.464Z,37.57
2023-02-12T03:02:43.233Z,35.87
2023-02-12T03:05:13.366Z,45.90
2023-02-12T03:07:52.696Z,31.60
2023-02-12T03:10:31.844Z,33.20
2023-02-12T03:13:05.733Z,36.17
2023-02-12T03:15:44.763Z,39.77
2023-02-12T03:18:14.596Z,38.73
2023-02-12T03:20:50.682Z,30.43
2023-02-12T03:23:19.708Z,36.67
2023-02-12T03:25:49.372Z,35.93
2023-02-12T03:28:21.016Z,35.07
2023-02-12T03:30:50.699Z,31.13
2023-02-12T03:33:21.147Z,31.43
2023-02-12T03:36:08.219Z,32.37
2023-02-12T03:38:41.712Z,29.97
2023-02-12T03:41:14.367Z,31.90
2023-02-12T03:43:53.434Z,28.50
2023-02-12T03:46:20.236Z,28.03
2023-02-12T03:49:13.495Z,32.40
2023-02-12T03:51:41.693Z,37.17
2023-02-12T03:54:09.739Z,30.77
2023-02-12T03:56:39.007Z,37.47
2023-02-12T03:59:06.143Z,29.77
2023-02-12T04:01:34.407Z,39.50
2023-02-12T04:04:04.201Z,27.17
2023-02-12T04:06:31.068Z,30.67
2023-02-12T04:08:59.224Z,29.73
2023-02-12T04:11:31.182Z,26.80
2023-02-12T04:14:07.095Z,26.63
2023-02-12T04:16:51.369Z,28.27
2023-02-12T04:19:26.013Z,33.13
2023-02-12T04:22:13.455Z,31.17
2023-02-12T04:24:58.966Z,25.67
2023-02-12T04:27:46.925Z,24.27
2023-02-12T04:30:32.537Z,28.03
2023-02-12T04:33:04.232Z,24.97
2023-02-12T04:35:36.889Z,25.77
2023-02-12T04:38:11.456Z,35.07
2023-02-12T04:40:41.619Z,28.90
2023-02-12T04:43:08.865Z,29.97
2023-02-12T04:45:36.625Z,25.23
2023-02-12T04:48:03.648Z,29.77
2023-02-12T04:50:41.736Z,26.87
2023-02-12T04:53:08.989Z,30.27
2023-02-12T04:55:36.190Z,29.13
2023-02-12T04:58:03.166Z,27.07
2023-02-12T05:00:30.105Z,26.10
2023-02-12T05:02:56.979Z,26.17
2023-02-12T05:05:24.008Z,30.03
2023-02-12T05:07:50.888Z,36.63
2023-02-12T05:10:17.748Z,25.90
2023-02-12T05:12:44.592Z,31.60
2023-02-12T05:15:11.407Z,27.43
2023-02-12T05:17:38.510Z,26.87
2023-02-12T05:20:06.238Z,29.57
2023-02-12T05:22:33.127Z,32.10
2023-02-12T05:25:00.118Z,26.23
2023-02-12T05:27:26.900Z,32.03
2023-02-12T05:29:53.786Z,30.93
2023-02-12T05:32:20.716Z,29.73
2023-02-12T05:34:47.569Z,27.13
2023-02-12T05:37:14.492Z,27.70
2023-02-12T05:39:41.389Z,24.87
2023-02-12T05:42:08.258Z,30.00
2023-02-12T05:44:35.138Z,32.53
2023-02-12T05:47:01.985Z,31.33
2023-02-12T05:49:28.792Z,24.53
2023-02-12T05:51:55.638Z,21.10
2023-02-12T05:54:22.398Z,24.30
2023-02-12T05:56:49.378Z,21.87
2023-02-12T05:59:18.381Z,17.47
2023-02-12T06:01:45.993Z,24.03
2023-02-12T06:04:18.256Z,18.90
2023-02-12T06:06:45.361Z,23.47
2023-02-12T06:09:12.761Z,19.73
2023-02-12T06:11:40.011Z,22.93
2023-02-12T06:14:07.921Z,20.20
2023-02-12T06:16:35.375Z,19.87
2023-02-12T06:19:04.679Z,19.27
2023-02-12T06:21:32.202Z,13.93
2023-02-12T06:23:59.075Z,16.53
2023-02-12T06:26:26.522Z,13.00
2023-02-12T06:28:53.427Z,18.00
2023-02-12T06:31:24.765Z,17.00
2023-02-12T06:33:52.104Z,17.77
2023-02-12T06:36:19.035Z,17.73
2023-02-12T06:38:46.272Z,19.93
2023-02-12T06:41:13.290Z,26.47
2023-02-12T06:43:40.236Z,19.47
2023-02-12T06:46:07.299Z,18.97
2023-02-12T06:48:34.208Z,17.90
2023-02-12T06:51:08.171Z,19.57
2023-02-12T06:53:35.740Z,17.03
2023-02-12T06:56:03.369Z,19.67
2023-02-12T06:58:30.503Z,15.20
2023-02-12T07:00:57.417Z,22.70
2023-02-12T07:03:24.313Z,19.63
2023-02-12T07:05:51.127Z,21.40
2023-02-12T07:08:17.962Z,17.17
2023-02-12T07:10:48.703Z,15.00
2023-02-12T07:13:15.622Z,14.27
2023-02-12T07:15:42.414Z,11.90
2023-02-12T07:18:09.287Z,12.70
2023-02-12T07:20:36.055Z,13.23
2023-02-12T07:23:02.917Z,16.30
2023-02-12T07:25:29.826Z,12.40
2023-02-12T07:27:56.592Z,16.37
2023-02-12T07:30:23.926Z,14.57
2023-02-12T07:32:50.674Z,12.53
2023-02-12T07:35:17.573Z,8.77
2023-02-12T07:37:44.393Z,9.13
2023-02-12T07:40:11.352Z,8.13
2023-02-12T07:42:38.146Z,10.43
2023-02-12T07:45:07.661Z,9.53
2023-02-12T07:47:35.959Z,11.00
2023-02-12T07:50:03.298Z,10.27
2023-02-12T07:52:30.199Z,9.87
2023-02-12T07:54:56.963Z,13.63
2023-02-12T07:57:24.000Z,13.80
2023-02-12T07:59:50.755Z,12.90
2023-02-12T08:02:17.620Z,10.53
2023-02-12T08:04:44.589Z,12.37
2023-02-12T08:07:11.393Z,7.93
2023-02-12T08:09:38.330Z,9.57
2023-02-12T08:12:05.212Z,6.67
2023-02-12T08:14:32.273Z,8.00
2023-02-12T08:16:59.094Z,7.60
2023-02-12T08:19:26.904Z,8.37
2023-02-12T08:21:56.713Z,11.63
2023-02-12T08:24:24.125Z,11.13
2023-02-12T08:26:51.357Z,8.47
2023-02-12T08:29:19.544Z,11.30
2023-02-12T08:31:48.159Z,10.87
2023-02-12T08:34:19.185Z,12.60
2023-02-12T08:36:46.568Z,8.53
2023-02-12T08:39:14.147Z,6.77
2023-02-12T08:41:42.517Z,9.30
2023-02-12T08:44:09.770Z,11.03
2023-02-12T08:46:37.864Z,11.00
2023-02-12T08:49:05.997Z,9.40
2023-02-12T08:51:34.730Z,11.47
2023-02-12T08:54:02.877Z,12.83
2023-02-12T08:56:30.993Z,12.63
2023-02-12T08:58:58.322Z,10.67
2023-02-12T09:01:26.051Z,10.87
2023-02-12T09:03:53.496Z,13.27
2023-02-12T09:06:21.345Z,9.10
2023-02-12T09:08:48.665Z,10.67
2023-02-12T09:11:16.789Z,11.73
2023-02-12T09:13:44.782Z,10.40
2023-02-12T09:16:11.820Z,13.07
2023-02-12T09:18:38.975Z,10.13
2023-02-12T09:21:09.738Z,11.47
2023-02-12T09:23:37.359Z,12.43
2023-02-12T09:26:05.764Z,14.87
2023-02-12T09:28:33.416Z,10.17
2023-02-12T09:31:04.798Z,11.10
2023-02-12T09:33:31.855Z,9.00
2023-02-12T09:36:05.668Z,9.63
2023-02-12T09:38:32.798Z,9.53
2023-02-12T09:41:18.482Z,15.33
2023-02-12T09:43:53.058Z,11.67
2023-02-12T09:46:34.341Z,11.23
2023-02-12T09:49:09.202Z,9.90
2023-02-12T09:51:36.997Z,9.67
2023-02-12T09:54:11.576Z,10.10
2023-02-12T09:56:39.790Z,8.87
2023-02-12T09:59:07.881Z,9.30
2023-02-12T10:01:35.186Z,8.57
2023-02-12T10:04:05.550Z,9.97
2023-02-12T10:06:52.784Z,11.90
2023-02-12T10:09:25.658Z,13.63
2023-02-12T10:11:53.396Z,10.70
2023-02-12T10:14:34.551Z,13.43
2023-02-12T10:17:12.419Z,11.67
2023-02-12T10:20:01.349Z,11.27
2023-02-12T10:22:31.376Z,10.70
2023-02-12T10:25:03.388Z,9.37
2023-02-12T10:27:33.166Z,8.90
2023-02-12T10:30:01.039Z,9.27
2023-02-12T10:32:30.844Z,13.13
2023-02-12T10:34:58.116Z,11.43
2023-02-12T10:37:40.324Z,11.43
2023-02-12T10:40:16.179Z,10.50
2023-02-12T10:42:44.323Z,12.30
2023-02-12T10:45:30.469Z,8.53
2023-02-12T10:48:15.811Z,10.07
2023-02-12T10:50:48.849Z,9.97
2023-02-12T10:53:18.819Z,12.53
2023-02-12T10:55:45.701Z,9.17
2023-02-12T10:58:23.322Z,9.43
2023-02-12T11:00:57.329Z,8.13
2023-02-12T11:03:28.595Z,9.53
2023-02-12T11:05:55.777Z,12.13
2023-02-12T11:08:36.895Z,8.57
2023-02-12T11:11:08.693Z,10.10
2023-02-12T11:13:35.860Z,11.07
2023-02-12T11:16:03.549Z,9.67
2023-02-12T11:18:34.749Z,15.23
2023-02-12T11:21:11.678Z,13.47
2023-02-12T11:23:41.662Z,8.33
2023-02-12T11:26:17.776Z,6.57
2023-02-12T11:29:01.903Z,14.50
2023-02-12T11:31:30.172Z,8.60
2023-02-12T11:34:14.269Z,14.30
2023-02-12T11:36:51.966Z,13.20
2023-02-12T11:39:21.712Z,13.20
2023-02-12T11:41:59.608Z,17.90
2023-02-12T11:44:32.530Z,12.03
2023-02-12T11:47:02.314Z,10.47
2023-02-12T11:49:30.956Z,10.77
2023-02-12T11:51:58.224Z,11.77
2023-02-12T11:54:27.115Z,14.17
2023-02-12T11:56:55.654Z,14.55
2023-02-12T11:59:41.074Z,12.37
2023-02-12T12:02:17.512Z,12.30
2023-02-12T12:04:46.676Z,14.10
2023-02-12T12:07:25.690Z,15.33
2023-02-12T12:10:16.043Z,12.97
2023-02-12T12:12:49.542Z,14.67
2023-02-12T12:15:38.283Z,21.07
2023-02-12T12:18:42.513Z,14.97
2023-02-12T12:21:12.619Z,17.03
2023-02-12T12:24:05.888Z,17.30
2023-02-12T12:26:34.809Z,20.03
2023-02-12T12:29:06.813Z,17.47
2023-02-12T12:31:36.236Z,19.83
2023-02-12T12:34:03.107Z,21.30
2023-02-12T12:36:45.865Z,20.53
2023-02-12T12:39:33.033Z,19.57
2023-02-12T12:42:02.676Z,16.90
2023-02-12T12:44:32.268Z,21.80
2023-02-12T12:47:02.361Z,23.90
2023-02-12T12:49:32.388Z,17.30
2023-02-12T12:52:02.384Z,16.03
2023-02-12T12:54:38.471Z,22.00
2023-02-12T12:57:09.216Z,18.37
2023-02-12T12:59:38.902Z,25.80
2023-02-12T13:02:05.794Z,19.43
2023-02-12T13:04:50.551Z,26.97
2023-02-12T13:07:28.757Z,19.60
2023-02-12T13:10:24.923Z,16.73
2023-02-12T13:12:52.253Z,21.13
2023-02-12T13:15:22.195Z,23.27
2023-02-12T13:17:58.473Z,25.07
2023-02-12T13:20:31.438Z,21.87
2023-02-12T13:23:14.047Z,17.50
2023-02-12T13:25:47.583Z,19.23
2023-02-12T13:28:19.099Z,18.10
2023-02-12T13:30:47.644Z,20.87
2023-02-12T13:33:22.039Z,20.10
2023-02-12T13:35:51.354Z,23.53
2023-02-12T13:38:23.345Z,15.47
2023-02-12T13:40:51.602Z,15.53
2023-02-12T13:43:34.220Z,18.53
2023-02-12T13:46:03.936Z,15.53
2023-02-12T13:48:42.667Z,18.57
2023-02-12T13:51:12.835Z,18.47
2023-02-12T13:53:54.705Z,16.83
2023-02-12T13:56:40.039Z,17.70
2023-02-12T13:59:26.821Z,15.83
2023-02-12T14:01:53.749Z,17.70
2023-02-12T14:04:39.323Z,16.97
2023-02-12T14:07:11.175Z,17.90
2023-02-12T14:09:47.268Z,17.80
2023-02-12T14:12:18.183Z,14.10
2023-02-12T14:14:47.275Z,17.87
2023-02-12T14:17:29.334Z,18.23
2023-02-12T14:20:14.969Z,18.07
2023-02-12T14:22:44.565Z,17.60
2023-02-12T14:25:14.378Z,12.03
2023-02-12T14:27:46.081Z,16.70
2023-02-12T14:30:13.111Z,17.07
2023-02-12T14:32:55.980Z,17.23
2023-02-12T14:35:41.637Z,17.13
2023-02-12T14:38:08.615Z,13.53
2023-02-12T14:40:35.381Z,19.50
2023-02-12T14:43:03.452Z,16.30
2023-02-12T14:45:35.116Z,34.97
2023-02-12T14:48:03.152Z,28.63
2023-02-12T14:50:31.709Z,19.03
2023-02-12T14:53:14.029Z,31.23
2023-02-12T14:55:43.801Z,22.10
2023-02-12T14:58:17.463Z,24.80
2023-02-12T15:00:46.898Z,37.57
2023-02-12T15:03:13.801Z,46.23
2023-02-12T15:05:43.425Z,41.73
2023-02-12T15:08:24.949Z,28.73
2023-02-12T15:11:08.395Z,31.07
2023-02-12T15:13:48.369Z,23.93
2023-02-12T15:16:41.281Z,28.13
2023-02-12T15:19:16.914Z,23.80
2023-02-12T15:21:46.282Z,19.43
2023-02-12T15:24:14.333Z,18.07
2023-02-12T15:26:42.886Z,17.07
2023-02-12T15:29:35.967Z,23.10
2023-02-12T15:32:06.671Z,18.97
2023-02-12T15:34:35.669Z,21.77
2023-02-12T15:37:03.892Z,21.20
2023-02-12T15:39:48.975Z,16.87
2023-02-12T15:42:24.808Z,19.23
2023-02-12T15:44:51.767Z,22.33
2023-02-12T15:47:24.833Z,32.90
2023-02-12T15:49:54.714Z,39.77
2023-02-12T15:52:24.974Z,39.90
2023-02-12T15:54:52.080Z,31.47
2023-02-12T15:57:21.566Z,37.67
2023-02-12T15:59:52.461Z,37.70
2023-02-12T16:02:27.682Z,55.97
2023-02-12T16:04:58.307Z,38.70
2023-02-12T16:07:26.063Z,38.07
2023-02-12T16:09:54.302Z,42.20
2023-02-12T16:12:23.142Z,30.47
2023-02-12T16:14:51.806Z,26.33
2023-02-12T16:17:29.828Z,28.23
2023-02-12T16:20:01.199Z,33.80
2023-02-12T16:22:37.698Z,29.43
2023-02-12T16:25:05.225Z,31.50
2023-02-12T16:27:33.252Z,24.07
2023-02-12T16:30:01.476Z,28.43
2023-02-12T16:32:34.546Z,26.90
2023-02-12T16:35:24.375Z,30.17
2023-02-12T16:37:52.730Z,25.77
2023-02-12T16:40:22.005Z,20.37
2023-02-12T16:42:49.213Z,22.33
2023-02-12T16:45:25.243Z,21.77
2023-02-12T16:47:53.787Z,34.10
2023-02-12T16:50:21.473Z,31.83
2023-02-12T16:52:48.327Z,20.27
2023-02-12T16:55:16.666Z,15.93
2023-02-12T16:57:44.508Z,17.17
2023-02-12T17:00:16.290Z,20.90
2023-02-12T17:02:43.535Z,18.73
2023-02-12T17:05:11.368Z,17.53
2023-02-12T17:07:38.173Z,15.77
2023-02-12T17:10:05.242Z,17.40
2023-02-12T17:12:32.006Z,17.97
2023-02-12T17:14:58.951Z,14.13
2023-02-12T17:17:25.835Z,17.87
2023-02-12T17:19:53.429Z,17.10
2023-02-12T17:22:22.065Z,15.60
2023-02-12T17:24:51.709Z,13.13
2023-02-12T17:27:18.900Z,13.33
2023-02-12T17:29:45.831Z,14.23
2023-02-12T17:32:12.775Z,18.17
2023-02-12T17:34:48.067Z,26.13
2023-02-12T17:37:16.681Z,14.70
2023-02-12T17:39:43.635Z,14.77
2023-02-12T17:42:10.501Z,13.37
2023-02-12T17:44:37.371Z,13.70
2023-02-12T17:47:04.264Z,14.10
2023-02-12T17:49:31.510Z,14.23
2023-02-12T17:51:58.361Z,11.93
2023-02-12T17:54:25.117Z,15.50
2023-02-12T17:56:52.058Z,15.63
2023-02-12T17:59:18.818Z,16.23
2023-02-12T18:01:45.907Z,11.93
2023-02-12T18:04:12.932Z,14.17
2023-02-12T18:06:39.842Z,18.63
2023-02-12T18:09:06.822Z,16.13
2023-02-12T18:11:33.626Z,17.13
2023-02-12T18:14:00.942Z,19.13
2023-02-12T18:16:29.358Z,19.13
2023-02-12T18:18:57.361Z,19.13
2023-02-12T18:21:24.250Z,22.20
2023-02-12T18:23:52.871Z,17.60
2023-02-12T18:26:19.678Z,21.93
2023-02-12T18:28:46.578Z,21.27
2023-02-12T18:31:13.554Z,19.97
2023-02-12T18:33:40.746Z,22.90
2023-02-12T18:36:09.396Z,21.97
2023-02-12T18:38:37.360Z,15.60
2023-02-12T18:41:08.076Z,19.60
2023-02-12T18:43:36.239Z,25.57
2023-02-12T18:46:13.903Z,26.10
2023-02-12T18:48:41.371Z,28.33
2023-02-12T18:51:08.836Z,24.60
2023-02-12T18:53:35.798Z,25.77
2023-02-12T18:56:06.035Z,25.70
2023-02-12T18:58:33.310Z,25.77
2023-02-12T19:01:00.490Z,29.17
2023-02-12T19:03:27.899Z,34.80
2023-02-12T19:06:02.143Z,43.70
2023-02-12T19:08:29.057Z,52.70
2023-02-12T19:10:56.062Z,46.70
2023-02-12T19:13:23.453Z,51.13
2023-02-12T19:15:50.475Z,49.20
2023-02-12T19:18:18.152Z,65.30
2023-02-12T19:20:45.171Z,62.67
2023-02-12T19:23:12.220Z,56.40
2023-02-12T19:25:43.007Z,40.70
2023-02-12T19:28:10.277Z,44.40
2023-02-12T19:30:37.538Z,39.83
2023-02-12T19:33:04.575Z,46.50
2023-02-12T19:35:31.472Z,42.10
2023-02-12T19:37:58.296Z,43.70
2023-02-12T19:40:25.572Z,47.13
2023-02-12T19:42:52.353Z,46.83
2023-02-12T19:45:19.236Z,48.27
2023-02-12T19:47:46.111Z,35.67
2023-02-12T19:50:12.986Z,39.20
2023-02-12T19:52:39.760Z,25.70
2023-02-12T19:55:06.716Z,20.03
2023-02-12T19:57:33.687Z,25.50
2023-02-12T20:00:00.563Z,20.17
2023-02-12T20:02:27.461Z,27.13
2023-02-12T20:04:54.309Z,33.27
2023-02-12T20:07:21.179Z,30.30
2023-02-12T20:09:50.447Z,19.90
2023-02-12T20:12:17.292Z,22.70
2023-02-12T20:14:44.606Z,29.87
2023-02-12T20:17:11.529Z,35.93
2023-02-12T20:19:38.284Z,29.57
2023-02-12T20:22:05.150Z,25.53
2023-02-12T20:24:32.999Z,21.93
2023-02-12T20:27:00.920Z,23.67
2023-02-12T20:29:28.226Z,40.40
2023-02-12T20:31:55.096Z,37.37
2023-02-12T20:34:22.499Z,34.23
2023-02-12T20:36:49.343Z,30.47
2023-02-12T20:39:17.612Z,37.60
2023-02-12T20:41:44.483Z,58.03
2023-02-12T20:44:14.042Z,54.00
2023-02-12T20:46:42.663Z,62.80
2023-02-12T20:49:12.105Z,68.27
2023-02-12T20:51:38.943Z,61.13
2023-02-12T20:54:06.068Z,66.50
2023-02-12T20:56:34.249Z,62.90
2023-02-12T20:59:01.255Z,60.00
2023-02-12T21:01:31.752Z,64.07
2023-02-12T21:04:01.648Z,60.77
2023-02-12T21:06:29.145Z,72.63
2023-02-12T21:08:56.321Z,68.53
2023-02-12T21:11:24.198Z,65.63
2023-02-12T21:13:58.856Z,70.07
2023-02-12T21:16:33.775Z,67.37
2023-02-12T21:19:01.004Z,74.13
2023-02-12T21:21:32.988Z,74.97
2023-02-12T21:24:01.735Z,85.47
2023-02-12T21:26:29.441Z,83.17
2023-02-12T21:28:57.699Z,90.47
2023-02-12T21:31:26.321Z,89.57
2023-02-12T21:33:54.582Z,88.50
2023-02-12T21:36:23.022Z,92.17
2023-02-12T21:38:50.750Z,81.23
2023-02-12T21:41:19.187Z,78.27
2023-02-12T21:43:47.485Z,89.20
2023-02-12T21:46:16.148Z,76.77
2023-02-12T21:48:43.378Z,74.67
2023-02-12T21:51:17.997Z,83.17
2023-02-12T21:53:45.926Z,69.50
2023-02-12T21:56:13.275Z,82.07
2023-02-12T21:58:40.959Z,72.47
2023-02-12T22:01:21.902Z,72.37
2023-02-12T22:03:49.619Z,69.17
2023-02-12T22:06:19.255Z,78.17
2023-02-12T22:08:46.674Z,70.93
2023-02-12T22:11:13.719Z,71.83
2023-02-12T22:13:40.953Z,73.77
2023-02-12T22:16:09.992Z,82.93
2023-02-12T22:18:37.165Z,70.93
2023-02-12T22:21:05.375Z,70.87
2023-02-12T22:23:32.560Z,75.53
2023-02-12T22:26:09.943Z,78.73
2023-02-12T22:28:43.863Z,65.40
2023-02-12T22:31:12.066Z,68.27
2023-02-12T22:33:39.472Z,69.30
2023-02-12T22:36:08.065Z,70.73
2023-02-12T22:38:35.610Z,71.43
2023-02-12T22:41:03.161Z,76.77
2023-02-12T22:43:31.403Z,70.87
2023-02-12T22:45:58.272Z,76.47
2023-02-12T22:48:25.336Z,70.30
2023-02-12T22:50:52.232Z,76.23
2023-02-12T22:53:19.099Z,67.93
2023-02-12T22:55:45.997Z,77.80
2023-02-12T22:58:12.851Z,78.33
2023-02-12T23:00:43.248Z,81.43
2023-02-12T23:03:10.565Z,80.10
2023-02-12T23:05:38.115Z,84.90
2023-02-12T23:08:05.597Z,88.47
2023-02-12T23:10:33.053Z,78.30
2023-02-12T23:12:59.818Z,81.40
2023-02-12T23:15:26.670Z,84.20
2023-02-12T23:17:53.644Z,78.97
2023-02-12T23:20:20.476Z,72.90
2023-02-12T23:22:47.390Z,75.10
2023-02-12T23:25:14.253Z,82.43
2023-02-12T23:27:41.079Z,78.03
2023-02-12T23:30:09.144Z,87.63
2023-02-12T23:32:35.994Z,79.17
2023-02-12T23:35:02.780Z,88.50
2023-02-12T23:37:29.691Z,84.80
2023-02-12T23:39:56.490Z,76.67
2023-02-12T23:42:23.323Z,75.07
2023-02-12T23:44:50.177Z,76.57
2023-02-12T23:47:17.402Z,83.97
2023-02-12T23:49:44.322Z,81.00
2023-02-12T23:52:11.164Z,90.63
2023-02-12T23:54:38.027Z,85.50
2023-02-12T23:57:04.933Z,76.00
2023-02-12T23:59:31.693Z,94.47
